Mount Hope, Kansas
Current Conditions -  °F | °C
As of 9:52 AM on Tuesday 21 Oct 2014 (Local Time) from KHUT Reporting Station
Clear Clear  
Wind Chill: 62°   Ceiling: Unl
Heat Index: 62°   Visibility: 9mi
Dew Point: 55°   Wind: 7mph
Humidity: 78%   Direction: 140°SE
Pressure: 30.11"   Gusts: NA
Location:  37.87°N, 97.67°W
Report Text: KHUT 211452Z 14006KT 9SM CLR 17/13 A3011 RMK AO2 SLP186 T01670128 53008
Loading
Personal Weather Stations






























Interactive Weather Map
Tropical Storm Tracking
New forecast layout! Learn more

10-Day Weather Forecast

Advertisements
Track Severe Weather on mobile